Time;durP1;ratioP1;P1;durP2;ratioP2;P2;SDS_P1;SDS_P2;PMS_P1;PMS_P2;Temp;Humidity;BMP_temperature;BMP_pressure;BME280_temperature;BME280_humidity;BME280_pressure;Samples;Min_cycle;Max_cycle;Signal;HPM_P1;HPM_P2
2023/08/18 00:02:15;;;;;;;4.95;3.28;;;;;;;18.72;85.25;101916.53;4994326;28;97823;-26
2023/08/18 00:04:41;;;;;;;6.05;3.78;;;;;;;18.70;85.57;101909.41;4994057;28;96666;-27
2023/08/18 00:07:08;;;;;;;6.25;3.63;;;;;;;18.72;85.28;101919.28;4992668;28;97906;-27
2023/08/18 00:09:33;;;;;;;11.73;3.92;;;;;;;18.67;85.11;101908.66;4991363;28;100851;-27
2023/08/18 00:11:59;;;;;;;6.63;4.03;;;;;;;18.70;85.45;101914.91;4993532;28;97364;-26
2023/08/18 00:14:24;;;;;;;5.55;3.50;;;;;;;18.68;85.06;101910.41;4995833;28;96621;-27
2023/08/18 00:16:50;;;;;;;7.50;4.22;;;;;;;18.71;85.00;101911.16;4997614;28;96759;-26
2023/08/18 00:19:15;;;;;;;5.88;4.15;;;;;;;18.71;84.59;101905.66;4997220;28;97918;-27
2023/08/18 00:21:41;;;;;;;7.35;4.10;;;;;;;18.71;85.33;101906.56;4997076;28;97789;-27
2023/08/18 00:24:06;;;;;;;5.38;3.47;;;;;;;18.67;85.18;101905.91;4997053;28;96777;-26
2023/08/18 00:26:32;;;;;;;5.57;3.85;;;;;;;18.68;85.33;101901.28;4997408;28;96883;-26
2023/08/18 00:28:57;;;;;;;5.97;4.07;;;;;;;18.67;85.53;101892.19;4996946;28;97391;-27
2023/08/18 00:31:24;;;;;;;6.07;3.85;;;;;;;18.67;84.53;101883.09;4996888;28;97699;-26
2023/08/18 00:33:49;;;;;;;5.45;3.15;;;;;;;18.65;85.15;101885.09;4995286;28;96567;-27
2023/08/18 00:36:15;;;;;;;7.20;3.85;;;;;;;18.56;85.64;101883.06;4997208;28;96768;-26
2023/08/18 00:38:40;;;;;;;7.15;3.63;;;;;;;18.59;85.30;101885.56;4996522;28;96769;-26
2023/08/18 00:41:05;;;;;;;7.60;4.10;;;;;;;18.61;85.10;101880.81;4996821;28;97948;-26
2023/08/18 00:43:31;;;;;;;6.22;3.47;;;;;;;18.60;84.94;101881.84;4997217;28;96601;-26
2023/08/18 00:45:57;;;;;;;7.55;3.47;;;;;;;18.60;85.14;101888.19;4996800;28;96815;-26
2023/08/18 00:48:23;;;;;;;5.75;3.58;;;;;;;18.57;85.25;101882.94;4996535;28;99459;-27
2023/08/18 00:50:49;;;;;;;4.85;2.97;;;;;;;18.51;85.77;101885.28;4995535;28;100678;-27
2023/08/18 00:53:15;;;;;;;5.45;3.55;;;;;;;18.57;85.38;101888.44;4995166;28;96673;-26
2023/08/18 00:55:41;;;;;;;5.82;3.25;;;;;;;18.63;84.79;101885.19;4997291;28;96788;-27
2023/08/18 00:58:06;;;;;;;5.30;3.60;;;;;;;18.59;85.09;101875.47;4994556;28;101012;-27
2023/08/18 01:00:32;;;;;;;7.82;3.50;;;;;;;18.62;85.54;101875.22;4996588;28;97771;-26
2023/08/18 01:02:58;;;;;;;5.85;3.60;;;;;;;18.51;85.39;101861.47;4996860;28;96687;-26
2023/08/18 01:05:24;;;;;;;6.05;3.55;;;;;;;18.53;85.01;101861.38;4995329;28;96906;-27
2023/08/18 01:07:49;;;;;;;7.00;3.67;;;;;;;18.59;85.57;101869.09;4996363;28;97344;-26
2023/08/18 01:10:15;;;;;;;6.75;3.60;;;;;;;18.56;84.69;101867.47;4996232;28;97187;-26
2023/08/18 01:12:55;;;;;;;6.13;3.35;;;;;;;18.57;85.09;101880.22;4995818;28;96819;-26
2023/08/18 01:15:32;;;;;;;6.00;3.22;;;;;;;18.54;84.67;101874.06;4996908;28;96862;-27
2023/08/18 01:18:01;;;;;;;5.95;3.30;;;;;;;18.53;84.45;101878.69;4994737;28;100995;-27
2023/08/18 01:20:27;;;;;;;7.18;3.33;;;;;;;18.51;84.49;101882.56;4994598;28;99159;-26
2023/08/18 01:23:03;;;;;;;7.55;3.30;;;;;;;18.52;84.35;101882.44;4995768;28;96566;-27
2023/08/18 01:25:30;;;;;;;5.07;3.22;;;;;;;18.51;84.01;101877.94;4994377;28;96812;-26
2023/08/18 01:27:58;;;;;;;5.80;3.38;;;;;;;18.46;84.59;101872.81;4994526;28;100847;-27
2023/08/18 01:30:30;;;;;;;4.93;3.13;;;;;;;18.54;84.80;101880.44;4994458;28;101482;-26
2023/08/18 01:33:13;;;;;;;5.70;3.25;;;;;;;18.50;84.03;101873.47;4994893;28;96719;-28
2023/08/18 01:35:42;;;;;;;7.68;3.47;;;;;;;18.54;83.76;101874.94;4994848;28;96886;-27
2023/08/18 01:38:09;;;;;;;6.00;2.88;;;;;;;18.51;83.90;101869.69;4993962;28;101223;-27
2023/08/18 01:40:37;;;;;;;4.85;2.80;;;;;;;18.50;83.97;101851.50;4994616;28;100781;-26
2023/08/18 01:43:03;;;;;;;5.82;3.28;;;;;;;18.48;84.04;101863.59;4994471;28;96669;-26
2023/08/18 01:45:29;;;;;;;7.20;3.47;;;;;;;18.42;83.76;101856.69;4994479;28;96890;-26
2023/08/18 01:47:54;;;;;;;4.45;2.85;;;;;;;18.38;84.11;101857.97;4995223;28;97479;-26
2023/08/18 01:50:20;;;;;;;4.63;2.92;;;;;;;18.39;83.97;101868.78;4995569;28;97903;-26
2023/08/18 01:52:45;;;;;;;5.07;3.10;;;;;;;18.37;84.32;101869.91;4995980;28;96509;-26
2023/08/18 01:55:10;;;;;;;4.97;2.95;;;;;;;18.34;84.85;101859.19;4996321;28;96507;-26
2023/08/18 01:57:36;;;;;;;5.50;2.97;;;;;;;18.35;84.55;101858.19;4995948;28;97340;-26
2023/08/18 02:00:01;;;;;;;4.13;2.55;;;;;;;18.36;84.39;101866.31;4995390;28;98945;-27
2023/08/18 02:02:26;;;;;;;5.38;3.22;;;;;;;18.32;84.55;101851.06;4995835;28;96620;-26
2023/08/18 02:04:55;;;;;;;4.95;2.65;;;;;;;18.32;84.58;101855.69;4996002;28;97639;-26
2023/08/18 02:07:20;;;;;;;5.35;2.90;;;;;;;18.35;84.06;101848.09;4993903;28;100813;-27
2023/08/18 02:09:45;;;;;;;4.30;2.70;;;;;;;18.34;84.00;101835.38;4995124;28;97797;-26
2023/08/18 02:12:11;;;;;;;5.38;2.95;;;;;;;18.31;83.90;101838.38;4994765;28;96535;-27
2023/08/18 02:14:36;;;;;;;5.03;3.17;;;;;;;18.33;83.94;101840.97;4995614;28;96834;-26
2023/08/18 02:17:01;;;;;;;4.45;3.05;;;;;;;18.27;84.26;101835.97;4995563;28;97249;-26
2023/08/18 02:19:27;;;;;;;4.22;2.90;;;;;;;18.30;84.40;101822.00;4995703;28;97221;-27
2023/08/18 02:21:52;;;;;;;4.82;3.00;;;;;;;18.29;84.35;101818.41;4995314;28;96663;-27
2023/08/18 02:24:17;;;;;;;4.88;2.95;;;;;;;18.19;84.57;101818.25;4995580;28;96839;-26
2023/08/18 02:26:43;;;;;;;4.65;2.83;;;;;;;18.21;84.49;101819.00;4995104;28;97419;-26
2023/08/18 02:29:08;;;;;;;4.88;3.00;;;;;;;18.19;84.64;101804.53;4995268;28;99976;-26
2023/08/18 02:31:33;;;;;;;5.35;2.88;;;;;;;18.15;84.58;101819.47;4995344;28;96757;-27
2023/08/18 02:33:59;;;;;;;5.38;2.78;;;;;;;18.21;84.53;101829.09;4995172;28;96905;-26
2023/08/18 02:36:24;;;;;;;4.35;2.75;;;;;;;18.11;84.43;101809.72;4994359;28;97917;-26
2023/08/18 02:38:50;;;;;;;4.15;2.75;;;;;;;18.19;84.24;101817.38;4993952;28;97721;-26
2023/08/18 02:41:17;;;;;;;4.35;3.00;;;;;;;18.17;84.86;101824.84;4995072;28;96564;-27
2023/08/18 02:43:47;;;;;;;4.88;3.00;;;;;;;18.15;84.45;101816.75;4995016;28;96901;-26
2023/08/18 02:46:12;;;;;;;4.18;2.90;;;;;;;18.20;83.86;101821.88;4994971;28;97454;-26
2023/08/18 02:48:38;;;;;;;4.88;2.90;;;;;;;18.19;83.87;101821.00;4994785;28;97793;-28
2023/08/18 02:51:04;;;;;;;4.05;2.75;;;;;;;18.19;84.51;101826.47;4995114;28;96602;-26
2023/08/18 02:53:31;;;;;;;5.18;3.05;;;;;;;18.15;83.92;101814.00;4995640;28;96830;-27
2023/08/18 02:55:58;;;;;;;6.25;3.08;;;;;;;18.13;84.03;101815.97;4993198;28;100825;-27
2023/08/18 02:58:24;;;;;;;4.50;2.92;;;;;;;18.13;84.30;101813.22;4993034;28;100897;-28
2023/08/18 03:00:50;;;;;;;4.55;2.83;;;;;;;18.17;84.14;101814.75;4994519;28;96544;-26
2023/08/18 03:03:15;;;;;;;4.18;2.50;;;;;;;18.18;84.25;101815.63;4995007;28;96794;-26
2023/08/18 03:05:40;;;;;;;5.70;2.75;;;;;;;18.14;84.34;101812.25;4994815;28;97415;-26
2023/08/18 03:08:06;;;;;;;4.00;2.85;;;;;;;18.17;84.56;101809.25;4994658;28;97965;-26
2023/08/18 03:10:32;;;;;;;4.97;3.17;;;;;;;18.15;84.01;101799.41;4994788;28;96807;-27
2023/08/18 03:12:57;;;;;;;6.47;3.35;;;;;;;18.15;84.66;101811.25;4994560;28;96747;-26
2023/08/18 03:15:22;;;;;;;4.53;2.80;;;;;;;18.11;84.27;101803.38;4994303;28;98373;-26
2023/08/18 03:17:49;;;;;;;4.32;2.67;;;;;;;18.11;84.99;101800.63;4994803;28;99153;-27
2023/08/18 03:20:14;;;;;;;5.95;2.90;;;;;;;18.13;84.85;101805.00;4994562;28;96589;-26
2023/08/18 03:22:40;;;;;;;7.03;3.05;;;;;;;18.13;84.19;101799.53;4994738;28;96786;-26
2023/08/18 03:25:05;;;;;;;6.53;3.10;;;;;;;18.12;84.38;101811.50;4992405;28;98892;-27
2023/08/18 03:27:31;;;;;;;4.50;2.90;;;;;;;18.08;84.66;101798.16;4994257;28;99259;-26
2023/08/18 03:29:56;;;;;;;5.13;2.72;;;;;;;18.10;84.83;101793.41;4994870;28;96472;-26
2023/08/18 03:32:24;;;;;;;4.97;2.83;;;;;;;18.10;85.00;101791.53;4994273;28;96800;-26
2023/08/18 03:34:52;;;;;;;5.32;3.15;;;;;;;18.09;84.88;101789.81;4994053;28;99469;-27
2023/08/18 03:37:17;;;;;;;5.75;3.33;;;;;;;18.06;85.17;101795.50;4992434;28;100500;-27
2023/08/18 03:39:42;;;;;;;4.38;2.95;;;;;;;18.06;84.72;101805.63;4994562;28;96520;-26
2023/08/18 03:42:08;;;;;;;5.57;3.60;;;;;;;18.03;85.10;101810.34;4994576;28;96867;-27
2023/08/18 03:44:33;;;;;;;6.68;3.47;;;;;;;18.04;85.31;101809.38;4994155;28;97415;-26
2023/08/18 03:46:58;;;;;;;5.45;3.28;;;;;;;18.01;85.52;101798.63;4994225;28;97731;-26
2023/08/18 03:49:24;;;;;;;5.18;3.00;;;;;;;18.01;85.08;101793.13;4995551;28;96705;-27
2023/08/18 03:51:49;;;;;;;6.90;3.25;;;;;;;18.02;85.54;101797.63;4997543;28;96777;-28
2023/08/18 03:54:14;;;;;;;5.93;3.40;;;;;;;18.03;85.18;101796.63;4997603;28;97924;-28
2023/08/18 03:56:40;;;;;;;4.63;3.10;;;;;;;17.95;85.30;101777.19;4997523;28;97380;-26
2023/08/18 03:59:05;;;;;;;5.50;3.15;;;;;;;17.96;85.24;101783.53;4997790;28;96585;-26
2023/08/18 04:01:31;;;;;;;5.65;3.60;;;;;;;17.99;85.45;101791.50;4997895;28;96802;-26
2023/08/18 04:03:58;;;;;;;8.35;3.55;;;;;;;17.91;85.45;101788.50;4997404;28;97961;-27
2023/08/18 04:06:24;;;;;;;7.15;3.88;;;;;;;17.98;85.95;101801.59;4996189;28;100858;-27
2023/08/18 04:09:06;;;;;;;5.28;3.58;;;;;;;17.96;85.90;101805.47;4997396;28;96693;-27
2023/08/18 04:11:32;;;;;;;;;;;;;;;17.94;86.20;101807.44;4997353;28;96753;-26
2023/08/18 04:13:58;;;;;;;9.93;2.65;;;;;;;17.81;86.55;101813.88;4995419;28;100648;-27
2023/08/18 04:16:23;;;;;;;6.57;3.83;;;;;;;17.81;86.04;101804.78;4997223;28;102443;-27
2023/08/18 04:18:48;;;;;;;6.32;3.45;;;;;;;17.77;86.68;101812.31;4997201;28;96567;-26
2023/08/18 04:21:14;;;;;;;8.48;3.85;;;;;;;17.73;86.91;101818.16;4997325;28;97147;-27
2023/08/18 04:23:39;;;;;;;5.65;3.47;;;;;;;17.69;86.81;101816.66;4996915;28;97319;-26
2023/08/18 04:26:04;;;;;;;6.63;3.42;;;;;;;17.67;87.81;101824.97;4996750;28;99361;-26
2023/08/18 04:28:30;;;;;;;5.03;3.08;;;;;;;17.62;86.98;101811.63;4997367;28;96547;-26
2023/08/18 04:30:55;;;;;;;7.38;3.40;;;;;;;17.62;87.36;101814.38;4997279;28;96834;-26
2023/08/18 04:33:20;;;;;;;6.88;3.63;;;;;;;17.61;87.16;101814.47;4996927;28;97899;-26
2023/08/18 04:35:46;;;;;;;5.78;3.67;;;;;;;17.67;87.63;101826.84;4997043;28;97343;-27
2023/08/18 04:38:13;;;;;;;6.20;3.60;;;;;;;17.65;86.95;101821.47;4996015;28;96590;-26
2023/08/18 04:40:39;;;;;;;6.43;3.58;;;;;;;17.61;87.07;101819.94;4997095;28;96825;-28
2023/08/18 04:43:04;;;;;;;6.28;3.38;;;;;;;17.60;87.17;101802.66;4995385;28;101068;-26
2023/08/18 04:45:30;;;;;;;9.80;3.15;;;;;;;17.63;87.17;101820.72;4996851;28;97390;-27
2023/08/18 04:47:56;;;;;;;4.82;2.78;;;;;;;17.59;87.63;101819.19;4996876;28;96664;-26
2023/08/18 04:50:21;;;;;;;5.75;3.50;;;;;;;17.51;87.40;101805.22;4995378;28;96828;-26
2023/08/18 04:52:46;;;;;;;5.57;3.20;;;;;;;17.47;87.96;101809.16;4996320;28;97925;-27
2023/08/18 04:55:12;;;;;;;5.70;3.13;;;;;;;17.51;87.70;101811.56;4997224;28;97306;-26
2023/08/18 04:57:37;;;;;;;6.25;3.33;;;;;;;17.52;87.61;101816.06;4996874;28;96656;-26
2023/08/18 05:00:05;;;;;;;3.90;2.75;;;;;;;17.47;88.54;101814.66;4995928;28;96715;-26
2023/08/18 05:02:30;;;;;;;4.85;2.78;;;;;;;17.40;88.77;101817.00;4994470;28;101141;-27
2023/08/18 05:04:56;;;;;;;5.75;3.35;;;;;;;17.43;87.91;101814.03;4996413;28;97785;-26
2023/08/18 05:07:22;;;;;;;6.68;2.78;;;;;;;17.45;88.32;101812.03;4996660;28;96689;-26
2023/08/18 05:09:47;;;;;;;4.68;2.60;;;;;;;17.40;88.50;101819.75;4994851;28;96966;-28
2023/08/18 05:12:12;;;;;;;8.18;3.20;;;;;;;17.41;88.37;101803.16;4995783;28;97429;-26
2023/08/18 05:14:38;;;;;;;6.13;3.13;;;;;;;17.42;88.40;101804.03;4996154;28;99626;-26
2023/08/18 05:17:03;;;;;;;5.00;3.08;;;;;;;17.48;88.21;101799.97;4996644;28;96558;-26
2023/08/18 05:19:29;;;;;;;4.72;3.15;;;;;;;17.48;88.17;101797.25;4996667;28;96854;-26
2023/08/18 05:21:55;;;;;;;4.53;2.70;;;;;;;17.50;87.66;101804.34;4996022;28;97874;-26
2023/08/18 05:24:20;;;;;;;4.18;2.70;;;;;;;17.49;87.54;101796.22;4994777;28;100763;-27
2023/08/18 05:26:45;;;;;;;5.75;3.17;;;;;;;17.52;87.22;101796.00;4995998;28;96542;-26
2023/08/18 05:29:11;;;;;;;4.43;2.53;;;;;;;17.51;87.54;101799.75;4996105;28;96899;-28
2023/08/18 05:31:37;;;;;;;4.60;2.63;;;;;;;17.50;87.37;101793.38;4995965;28;97941;-26
2023/08/18 05:34:03;;;;;;;4.97;3.03;;;;;;;17.55;88.06;101796.66;4994447;28;101060;-27
2023/08/18 05:36:29;;;;;;;5.13;2.83;;;;;;;17.58;88.49;101807.38;4994686;28;96711;-26
2023/08/18 05:38:55;;;;;;;5.13;2.90;;;;;;;17.57;87.53;101802.03;4996023;28;96735;-26
2023/08/18 05:41:20;;;;;;;5.07;2.83;;;;;;;17.59;87.91;101809.13;4996003;28;97480;-26
2023/08/18 05:43:46;;;;;;;3.92;2.65;;;;;;;17.59;87.68;101798.19;4996605;28;97071;-26
2023/08/18 05:46:11;;;;;;;3.97;2.67;;;;;;;17.54;87.87;101794.00;4996156;28;96557;-26
2023/08/18 05:48:36;;;;;;;5.82;2.78;;;;;;;17.59;87.84;101797.28;4996168;28;96808;-26
2023/08/18 05:51:03;;;;;;;5.05;2.92;;;;;;;17.65;87.84;101794.09;4995029;28;97833;-26
2023/08/18 05:53:30;;;;;;;4.22;2.47;;;;;;;17.60;88.45;101794.44;4995746;28;97149;-27
2023/08/18 05:55:55;;;;;;;4.05;2.55;;;;;;;17.65;87.70;101805.03;4995862;28;96646;-26
2023/08/18 05:58:20;;;;;;;4.93;3.13;;;;;;;17.66;87.73;101797.69;4995890;28;96726;-27
2023/08/18 06:00:49;;;;;;;4.53;2.80;;;;;;;17.60;88.59;101782.59;4995301;28;99244;-27
2023/08/18 06:03:15;;;;;;;4.80;2.55;;;;;;;17.67;87.83;101786.63;4994014;28;101085;-28
2023/08/18 06:05:40;;;;;;;5.03;3.13;;;;;;;17.65;88.67;101779.50;4995591;28;96563;-26
2023/08/18 06:08:06;;;;;;;6.57;2.78;;;;;;;17.67;87.74;101786.63;4996162;28;96730;-27
2023/08/18 06:10:31;;;;;;;5.07;3.00;;;;;;;17.72;87.54;101769.81;4994977;28;99405;-26
2023/08/18 06:12:56;;;;;;;5.68;3.17;;;;;;;17.76;87.58;101780.44;4994295;28;97325;-27
2023/08/18 06:15:23;;;;;;;6.57;3.10;;;;;;;17.72;87.75;101778.91;4995271;28;96557;-26
2023/08/18 06:17:49;;;;;;;5.03;2.55;;;;;;;17.81;87.42;101786.47;4994183;28;96810;-27
2023/08/18 06:20:15;;;;;;;6.63;3.13;;;;;;;17.87;87.14;101784.25;4994978;28;97840;-26
2023/08/18 06:22:40;;;;;;;5.68;2.97;;;;;;;17.97;87.01;101786.16;4993766;28;100798;-26
2023/08/18 06:25:07;;;;;;;7.95;3.42;;;;;;;18.06;86.25;101780.94;4995191;28;96579;-26
2023/08/18 06:27:33;;;;;;;5.30;3.03;;;;;;;18.08;86.75;101774.34;4994996;28;96857;-27
2023/08/18 06:29:59;;;;;;;6.10;3.00;;;;;;;18.07;86.56;101775.34;4992706;28;100859;-26
2023/08/18 06:32:24;;;;;;;5.45;3.17;;;;;;;18.14;86.23;101789.44;4995447;28;97836;-27
2023/08/18 06:34:50;;;;;;;8.10;3.28;;;;;;;18.07;86.58;101786.31;4995159;28;96599;-27
2023/08/18 06:37:16;;;;;;;5.63;3.03;;;;;;;18.09;85.98;101788.91;4993696;28;96786;-26
2023/08/18 06:39:41;;;;;;;6.40;2.97;;;;;;;18.13;86.50;101802.28;4994580;28;97530;-27
2023/08/18 06:42:07;;;;;;;6.68;3.55;;;;;;;18.10;86.55;101786.06;4992584;28;99338;-27
2023/08/18 06:44:34;;;;;;;6.50;3.72;;;;;;;18.18;87.09;101794.53;4992654;28;97298;-27
2023/08/18 06:47:00;;;;;;;5.45;2.97;;;;;;;18.19;87.21;101795.44;4991542;28;97254;-31
2023/08/18 06:49:25;;;;;;;6.93;3.65;;;;;;;18.27;86.35;101808.56;4992918;28;98145;-29
2023/08/18 06:51:50;;;;;;;6.30;3.40;;;;;;;18.29;86.06;101801.94;4992752;28;99073;-27
2023/08/18 06:54:16;;;;;;;5.45;3.47;;;;;;;18.26;85.81;101796.72;4993480;28;96644;-28
2023/08/18 06:56:41;;;;;;;8.00;3.78;;;;;;;18.29;85.55;101803.81;4994562;28;97114;-27
2023/08/18 06:59:06;;;;;;;8.48;3.55;;;;;;;18.29;85.54;101792.84;4994600;28;99427;-26
2023/08/18 07:01:32;;;;;;;5.75;3.22;;;;;;;18.21;86.18;101787.94;4994610;28;97737;-26
2023/08/18 07:03:57;;;;;;;7.32;3.47;;;;;;;18.18;86.36;101791.81;4994088;28;96653;-26
2023/08/18 07:06:22;;;;;;;8.35;3.45;;;;;;;18.17;85.97;101790.06;4993593;28;96870;-27
2023/08/18 07:08:48;;;;;;;5.90;3.70;;;;;;;18.16;86.07;101791.09;4992051;28;97866;-30
2023/08/18 07:11:14;;;;;;;6.28;3.90;;;;;;;18.17;85.86;101791.94;4992361;28;97231;-28
2023/08/18 07:13:40;;;;;;;6.80;3.60;;;;;;;18.14;86.25;101789.44;4990782;28;97076;-27
2023/08/18 07:16:05;;;;;;;6.88;3.47;;;;;;;18.21;86.07;101788.84;4993080;28;96827;-27
2023/08/18 07:18:31;;;;;;;7.78;3.88;;;;;;;18.24;85.66;101777.63;4992308;28;97993;-26
2023/08/18 07:20:58;;;;;;;6.13;3.45;;;;;;;18.32;86.13;101774.25;4993371;28;97306;-26
2023/08/18 07:23:24;;;;;;;6.28;3.75;;;;;;;18.45;85.95;101766.81;4994993;28;96507;-27
2023/08/18 07:25:50;;;;;;;7.65;4.10;;;;;;;18.68;85.32;101766.81;4996750;28;96884;-27
2023/08/18 07:28:15;;;;;;;9.60;4.25;;;;;;;18.87;84.17;101760.72;4997612;28;97843;-26
2023/08/18 07:30:41;;;;;;;6.82;3.85;;;;;;;19.10;83.57;101765.19;4997712;28;99732;-26
2023/08/18 07:33:06;;;;;;;6.60;3.85;;;;;;;19.12;83.20;101766.97;4997931;28;96660;-26
2023/08/18 07:35:31;;;;;;;8.35;4.25;;;;;;;19.22;83.17;101762.44;4997915;28;96871;-27
2023/08/18 07:37:57;;;;;;;7.57;3.88;;;;;;;19.35;82.38;101765.88;4997550;28;97843;-26
2023/08/18 07:40:22;;;;;;;8.75;4.80;;;;;;;19.46;81.63;101760.34;4997846;28;97754;-26
2023/08/18 07:42:48;;;;;;;9.25;4.55;;;;;;;19.71;81.38;101775.69;4997876;28;96467;-27
2023/08/18 07:45:13;;;;;;;11.75;5.00;;;;;;;19.71;80.96;101770.19;4998100;28;96861;-26
2023/08/18 07:47:39;;;;;;;8.15;4.10;;;;;;;19.66;81.24;101768.78;4997353;28;98942;-26
2023/08/18 07:50:09;;;;;;;11.75;4.97;;;;;;;19.69;81.13;101771.31;4996045;28;100497;-27
2023/08/18 07:52:36;;;;;;;8.27;4.53;;;;;;;19.67;81.22;101770.53;4996243;28;96716;-26
2023/08/18 07:55:05;;;;;;;8.60;4.75;;;;;;;19.57;81.76;101769.56;4997849;28;96823;-26
2023/08/18 07:57:31;;;;;;;10.05;4.57;;;;;;;19.43;82.09;101755.13;4995882;28;101235;-26
2023/08/18 07:59:56;;;;;;;10.57;4.93;;;;;;;19.50;81.91;101756.34;4997438;28;97340;-26
2023/08/18 08:02:22;;;;;;;10.20;5.07;;;;;;;19.57;81.91;101761.31;4997262;28;96607;-26
2023/08/18 08:04:48;;;;;;;9.80;4.78;;;;;;;19.60;81.73;101753.69;4996174;28;96850;-26
2023/08/18 08:07:14;;;;;;;10.10;4.50;;;;;;;19.62;81.68;101759.06;4995994;28;100733;-27
2023/08/18 08:09:39;;;;;;;9.75;5.35;;;;;;;19.48;82.02;101760.22;4997650;28;97872;-26
2023/08/18 08:12:05;;;;;;;12.18;4.40;;;;;;;19.44;82.79;101764.25;4997088;28;96826;-26
2023/08/18 08:14:30;;;;;;;9.40;4.82;;;;;;;19.41;82.65;101761.75;4997427;28;96730;-27
2023/08/18 08:16:56;;;;;;;7.72;4.18;;;;;;;19.61;81.96;101760.06;5012877;28;97243;-26
2023/08/18 08:19:21;;;;;;;10.27;4.78;;;;;;;19.68;81.77;101772.31;5017112;28;98038;-26
2023/08/18 08:21:47;;;;;;;10.82;5.43;;;;;;;19.57;81.92;101766.81;5017423;28;96456;-26
2023/08/18 08:24:12;;;;;;;10.15;5.45;;;;;;;19.44;82.23;101765.09;5017436;28;96919;-27
2023/08/18 08:26:37;;;;;;;11.02;4.10;;;;;;;19.44;82.80;101756.84;5017008;28;97941;-26
2023/08/18 08:29:03;;;;;;;8.32;4.15;;;;;;;19.51;83.11;101758.09;5017056;28;97762;-26
2023/08/18 08:31:28;;;;;;;11.68;5.43;;;;;;;19.62;82.98;101772.81;5017237;28;96574;-26
2023/08/18 08:33:54;;;;;;;9.68;5.13;;;;;;;19.66;82.38;101761.44;5017643;28;96729;-27
2023/08/18 08:36:19;;;;;;;9.30;5.25;;;;;;;19.81;82.02;101763.91;5016900;28;98569;-26
2023/08/18 08:38:44;;;;;;;9.45;4.90;;;;;;;19.89;81.74;101767.72;5016693;28;97813;-26
2023/08/18 08:41:10;;;;;;;11.73;5.63;;;;;;;20.10;81.80;101781.47;5016625;28;96529;-27
2023/08/18 08:43:35;;;;;;;11.15;4.85;;;;;;;20.11;81.04;101768.59;5017134;28;96856;-26
2023/08/18 08:46:01;;;;;;;13.65;6.10;;;;;;;20.19;81.24;101778.91;5016844;28;97267;-27
2023/08/18 08:48:36;;;;;;;13.15;5.53;;;;;;;20.32;80.76;101768.59;5016765;28;97861;-26
2023/08/18 08:51:04;;;;;;;10.50;4.93;;;;;;;20.48;80.33;101779.13;5015367;28;96636;-26
2023/08/18 08:53:39;;;;;;;9.00;5.38;;;;;;;20.51;79.89;101785.22;5015305;28;97043;-28
2023/08/18 08:56:07;;;;;;;10.02;5.25;;;;;;;20.55;79.83;101786.72;5015155;28;100924;-26
2023/08/18 08:58:36;;;;;;;13.43;5.63;;;;;;;20.58;79.64;101780.94;5016489;28;99363;-26
2023/08/18 09:01:02;;;;;;;13.25;5.68;;;;;;;20.63;79.88;101788.78;5015500;28;96552;-26
2023/08/18 09:03:28;;;;;;;11.45;4.95;;;;;;;20.69;79.51;101777.22;5016850;28;96844;-27
2023/08/18 09:05:55;;;;;;;10.95;5.40;;;;;;;20.72;79.45;101771.44;5015956;28;97893;-26
2023/08/18 09:08:21;;;;;;;9.45;5.32;;;;;;;21.01;78.80;101781.69;5014706;28;100725;-26
2023/08/18 09:10:46;;;;;;;11.45;6.00;;;;;;;21.18;78.13;101783.78;5015041;28;96777;-26
2023/08/18 09:13:12;;;;;;;11.18;5.65;;;;;;;21.23;77.71;101791.63;5015753;28;96840;-26
2023/08/18 09:15:45;;;;;;;11.23;5.18;;;;;;;21.12;78.08;101795.38;5014811;28;100693;-26
2023/08/18 09:18:16;;;;;;;12.30;5.45;;;;;;;21.13;78.71;101796.25;5014729;28;100847;-26
2023/08/18 09:20:45;;;;;;;12.05;5.88;;;;;;;21.07;78.17;101786.66;5015196;28;96630;-27
2023/08/18 09:23:11;;;;;;;9.05;5.10;;;;;;;20.97;78.68;101781.13;5015323;28;96819;-26
2023/08/18 09:25:37;;;;;;;11.98;6.35;;;;;;;20.98;78.76;101780.09;5014638;28;100780;-26
2023/08/18 09:28:03;;;;;;;13.77;5.78;;;;;;;21.03;79.09;101779.69;5014721;28;100996;-26
2023/08/18 09:30:30;;;;;;;11.52;5.63;;;;;;;21.15;78.52;101773.03;5014284;28;96823;-26
2023/08/18 09:32:56;;;;;;;14.32;6.25;;;;;;;21.26;78.49;101777.59;5014817;28;96811;-26
2023/08/18 09:35:22;;;;;;;13.30;6.05;;;;;;;21.39;77.86;101766.28;5014396;28;100864;-26
2023/08/18 09:37:56;;;;;;;11.38;5.85;;;;;;;21.61;77.05;101759.66;5015683;28;98221;-26
2023/08/18 09:40:21;;;;;;;15.73;5.82;;;;;;;21.65;77.00;101760.25;5014509;28;96652;-26
2023/08/18 09:42:47;;;;;;;16.85;6.95;;;;;;;21.57;77.38;101763.72;5016167;28;96741;-28
2023/08/18 09:45:12;;;;;;;11.10;6.05;;;;;;;21.45;77.59;101757.44;5016141;28;97382;-26
2023/08/18 09:47:39;;;;;;;13.45;6.65;;;;;;;21.36;78.48;101756.41;5015331;28;99008;-26
2023/08/18 09:50:09;;;;;;;11.07;6.15;;;;;;;21.46;77.91;101761.97;5016279;28;96634;-27
2023/08/18 09:52:37;;;;;;;12.63;6.78;;;;;;;21.47;78.09;101762.84;5014530;28;96804;-29
2023/08/18 09:55:11;;;;;;;13.45;6.35;;;;;;;21.53;77.89;101760.38;5015003;28;97460;-26
2023/08/18 09:57:57;;;;;;;12.73;6.68;;;;;;;21.58;78.19;101763.56;5014137;28;100881;-27
2023/08/18 10:00:25;;;;;;;14.82;7.10;;;;;;;21.63;77.74;101755.75;5014529;28;96586;-27
2023/08/18 10:02:55;;;;;;;13.43;6.70;;;;;;;21.74;77.91;101756.63;5014283;28;97384;-26
2023/08/18 10:05:21;;;;;;;13.75;6.75;;;;;;;21.73;77.38;101741.94;5013929;28;98017;-26
2023/08/18 10:07:47;;;;;;;17.65;7.43;;;;;;;21.80;77.56;101745.88;5013846;28;99108;-26
2023/08/18 10:10:13;;;;;;;16.10;7.10;;;;;;;21.88;77.47;101731.38;5014011;28;96665;-27
2023/08/18 10:12:41;;;;;;;15.88;6.78;;;;;;;21.98;77.56;101726.69;5014328;28;96848;-26
2023/08/18 10:15:07;;;;;;;11.80;6.43;;;;;;;22.16;76.49;101721.25;5013867;28;101037;-26
2023/08/18 10:17:33;;;;;;;11.30;6.93;;;;;;;22.35;76.05;101727.78;5013764;28;100857;-26
2023/08/18 10:20:00;;;;;;;13.93;6.13;;;;;;;22.47;76.08;101721.06;5014912;28;96642;-26
2023/08/18 10:22:28;;;;;;;12.02;6.45;;;;;;;22.45;75.53;101728.63;5015346;28;96791;-26
2023/08/18 10:24:54;;;;;;;13.60;6.80;;;;;;;22.48;75.88;101711.78;5013758;28;101569;-28
2023/08/18 10:27:26;;;;;;;16.42;7.60;;;;;;;22.78;75.92;101713.38;5013645;28;100992;-26
2023/08/18 10:29:52;;;;;;;9.95;5.80;;;;;;;22.91;74.77;101699.22;5015556;28;96549;-27
2023/08/18 10:32:18;;;;;;;16.20;7.32;;;;;;;23.08;74.25;101694.78;5013889;28;96480;-26
2023/08/18 10:34:43;;;;;;;12.60;6.22;;;;;;;23.15;73.56;101683.97;5014777;28;99822;-26
2023/08/18 10:37:14;;;;;;;14.73;7.18;;;;;;;23.18;73.89;101700.22;5015299;28;97784;-30
2023/08/18 10:39:40;;;;;;;12.67;6.37;;;;;;;23.18;74.35;101708.53;5015286;28;96825;-26
2023/08/18 10:42:15;;;;;;;11.60;6.30;;;;;;;23.24;74.05;101694.97;5015398;28;96897;-28
2023/08/18 10:45:21;;;;;;;12.68;5.72;;;;;;;23.41;73.80;101693.22;5014335;28;97786;-26
2023/08/18 10:47:46;;;;;;;11.63;6.20;;;;;;;23.61;73.08;101693.91;5014776;28;99382;-26
2023/08/18 10:50:14;;;;;;;12.57;6.63;;;;;;;23.64;73.35;101703.78;5015268;28;96407;-27
2023/08/18 10:52:40;;;;;;;16.85;7.57;;;;;;;23.69;73.49;101710.59;5014932;28;97189;-27
2023/08/18 10:55:06;;;;;;;13.38;6.75;;;;;;;23.50;72.86;101707.97;5013253;28;100059;-26
2023/08/18 10:57:33;;;;;;;10.13;5.95;;;;;;;23.35;73.79;101698.50;5012847;28;102232;-26
2023/08/18 10:59:59;;;;;;;13.60;6.75;;;;;;;23.31;74.25;101693.31;5014153;28;96501;-27
2023/08/18 11:02:25;;;;;;;16.52;7.20;;;;;;;23.31;74.42;101687.78;5015406;28;96870;-26
2023/08/18 11:04:51;;;;;;;15.57;6.88;;;;;;;23.35;74.19;101688.31;5014670;28;97449;-26
2023/08/18 11:07:19;;;;;;;12.93;7.18;;;;;;;23.23;74.12;101682.13;5014614;28;98353;-26
2023/08/18 11:09:45;;;;;;;13.55;6.20;;;;;;;23.20;74.64;101681.59;5012697;28;96854;-26
2023/08/18 11:12:10;;;;;;;11.75;6.50;;;;;;;23.30;74.51;101674.09;5013027;28;96825;-26
2023/08/18 11:14:36;;;;;;;13.40;6.35;;;;;;;23.64;73.51;101674.22;5014753;28;97898;-26
2023/08/18 11:17:02;;;;;;;16.52;6.63;;;;;;;23.77;73.21;101668.31;5014971;28;96473;-27
2023/08/18 11:19:28;;;;;;;16.17;6.88;;;;;;;23.89;73.32;101663.41;5014407;28;96525;-26